Time;durP1;ratioP1;P1;durP2;ratioP2;P2;SDS_P1;SDS_P2;PMS_P1;PMS_P2;Temp;Humidity;BMP_temperature;BMP_pressure;BME280_temperature;BME280_humidity;BME280_pressure;Samples;Min_cycle;Max_cycle;Signal;HPM_P1;HPM_P2
2024/03/05 00:00:12;;;;;;;7.90;3.40;;;;;;;10.00;100.00;97894.19;4939542;28;20466;-66
2024/03/05 00:02:44;;;;;;;7.03;3.03;;;;;;;9.60;100.00;97851.53;4967520;28;20030;-67
2024/03/05 00:05:15;;;;;;;7.80;2.83;;;;;;;9.96;100.00;97911.06;4939630;28;20068;-67
2024/03/05 00:07:44;;;;;;;8.02;3.33;;;;;;;9.92;100.00;97899.38;4953671;28;20057;-66
2024/03/05 00:10:12;;;;;;;7.65;3.25;;;;;;;9.90;100.00;97909.09;4972011;28;20153;-66
2024/03/05 00:12:38;;;;;;;6.78;2.97;;;;;;;9.89;100.00;97907.47;4956856;28;20461;-67
2024/03/05 00:15:05;;;;;;;7.50;3.10;;;;;;;9.92;100.00;97909.75;4959376;28;20125;-66
2024/03/05 00:17:30;;;;;;;5.28;2.75;;;;;;;9.69;100.00;97874.00;4977804;28;20772;-66
2024/03/05 00:19:58;;;;;;;5.40;2.88;;;;;;;9.81;100.00;97901.28;4963686;28;20042;-66
2024/03/05 00:22:24;;;;;;;8.20;3.30;;;;;;;9.81;100.00;97903.06;4945848;28;20496;-67
2024/03/05 00:24:52;;;;;;;6.53;3.35;;;;;;;9.72;100.00;97902.22;4963572;28;20054;-66
2024/03/05 00:27:22;;;;;;;13.77;3.60;;;;;;;9.79;100.00;97918.00;4963679;28;20043;-67
2024/03/05 00:29:48;;;;;;;5.65;2.90;;;;;;;9.74;100.00;97912.44;4964370;28;20042;-67
2024/03/05 00:32:13;;;;;;;6.03;3.13;;;;;;;9.72;100.00;97923.00;4960768;28;20039;-66
2024/03/05 00:34:43;;;;;;;7.57;3.00;;;;;;;9.77;100.00;97925.13;4963752;28;20050;-67
2024/03/05 00:37:09;;;;;;;6.40;3.17;;;;;;;9.68;100.00;97907.91;4947206;28;20126;-67
2024/03/05 00:39:34;;;;;;;7.10;3.10;;;;;;;9.76;100.00;97921.69;4950156;28;20049;-67
2024/03/05 00:42:04;;;;;;;6.28;3.10;;;;;;;9.52;100.00;97888.66;4954180;28;20146;-67
2024/03/05 00:44:32;;;;;;;8.00;3.08;;;;;;;9.49;100.00;97921.91;4964505;28;20716;-67
2024/03/05 00:46:58;;;;;;;8.18;3.30;;;;;;;9.45;100.00;97926.59;4962981;28;20053;-67
2024/03/05 00:49:25;;;;;;;8.00;3.22;;;;;;;9.55;100.00;97921.31;4979878;28;20039;-67
2024/03/05 00:51:53;;;;;;;7.78;3.15;;;;;;;9.50;100.00;97916.56;4980087;28;20038;-67
2024/03/05 00:54:18;;;;;;;7.13;3.30;;;;;;;9.58;100.00;97923.56;4983979;28;20050;-67
2024/03/05 00:56:44;;;;;;;9.05;3.20;;;;;;;9.56;100.00;97915.13;4962899;28;20096;-67
2024/03/05 00:59:11;;;;;;;8.55;3.70;;;;;;;9.39;100.00;97909.06;4980863;28;20038;-67
2024/03/05 01:01:36;;;;;;;8.68;3.92;;;;;;;9.27;100.00;97929.22;4979900;28;20639;-67
2024/03/05 01:04:05;;;;;;;7.25;3.53;;;;;;;8.83;100.00;97880.84;4965487;28;20057;-67
2024/03/05 01:06:30;;;;;;;7.15;3.28;;;;;;;9.16;100.00;97919.13;4962543;28;20065;-67
2024/03/05 01:08:56;;;;;;;8.75;4.00;;;;;;;9.29;100.00;97919.53;4962728;28;20651;-67
2024/03/05 01:11:21;;;;;;;7.35;3.33;;;;;;;9.21;100.00;97925.47;4961774;28;20069;-67
2024/03/05 01:13:46;;;;;;;6.97;3.38;;;;;;;9.27;100.00;97926.66;4951604;28;20153;-67
2024/03/05 01:16:12;;;;;;;8.48;3.30;;;;;;;9.11;100.00;97922.19;4978923;28;20111;-66
2024/03/05 01:18:37;;;;;;;7.25;3.38;;;;;;;9.01;100.00;97916.28;4962092;28;20042;-67
2024/03/05 01:21:05;;;;;;;8.40;3.80;;;;;;;8.98;100.00;97904.44;4978387;28;20516;-67
2024/03/05 01:23:31;;;;;;;7.70;3.55;;;;;;;9.00;100.00;97914.66;4984637;28;20030;-67
2024/03/05 01:25:59;;;;;;;5.95;3.38;;;;;;;8.92;100.00;97912.81;4979297;28;20496;-67
2024/03/05 01:28:28;;;;;;;6.28;3.58;;;;;;;8.84;100.00;97904.97;4959029;28;20042;-67
2024/03/05 01:30:55;;;;;;;6.80;3.80;;;;;;;8.82;100.00;97909.50;4965603;28;20045;-67
2024/03/05 01:33:22;;;;;;;7.18;3.65;;;;;;;8.80;100.00;97908.84;4948349;28;20055;-67
2024/03/05 01:35:51;;;;;;;8.60;3.90;;;;;;;8.84;100.00;97900.59;4961696;28;20046;-67
2024/03/05 01:38:17;;;;;;;9.73;4.22;;;;;;;8.88;100.00;97913.28;4979068;28;20038;-67
2024/03/05 01:40:43;;;;;;;6.25;3.30;;;;;;;8.87;100.00;97904.69;4959612;28;20050;-67
2024/03/05 01:43:09;;;;;;;10.82;3.78;;;;;;;8.77;100.00;97911.72;4959982;28;20030;-67
2024/03/05 01:45:34;;;;;;;8.82;3.80;;;;;;;8.92;100.00;97906.81;4980217;28;20131;-67
2024/03/05 01:48:01;;;;;;;7.07;3.25;;;;;;;8.97;100.00;97905.38;4962503;28;20096;-67
2024/03/05 01:50:28;;;;;;;8.07;3.33;;;;;;;9.07;100.00;97918.25;4978913;28;20107;-67
2024/03/05 01:52:55;;;;;;;7.03;3.17;;;;;;;8.81;100.00;97906.06;4962506;28;20057;-67
2024/03/05 01:55:21;;;;;;;8.05;3.25;;;;;;;8.69;100.00;97898.69;4946439;28;20035;-68
2024/03/05 01:57:48;;;;;;;6.07;3.28;;;;;;;8.69;100.00;97902.13;4962528;28;20037;-68
2024/03/05 02:00:20;;;;;;;6.35;3.47;;;;;;;8.81;100.00;97910.47;4946816;28;20034;-67
2024/03/05 02:02:49;;;;;;;7.05;3.45;;;;;;;8.91;100.00;97912.94;4963543;28;20035;-68
2024/03/05 02:05:15;;;;;;;7.43;3.72;;;;;;;8.65;100.00;97869.66;4962872;28;20076;-68
2024/03/05 02:07:41;;;;;;;7.03;3.22;;;;;;;8.75;100.00;97896.31;4961709;28;20125;-69
2024/03/05 02:10:12;;;;;;;7.35;3.30;;;;;;;8.85;100.00;97902.25;4945694;28;20066;-68
2024/03/05 02:12:37;;;;;;;6.15;3.20;;;;;;;8.81;100.00;97903.47;4962944;28;20049;-68
2024/03/05 02:15:10;;;;;;;6.90;3.25;;;;;;;8.84;100.00;97907.56;4980594;28;20046;-68
2024/03/05 02:17:36;;;;;;;8.48;3.75;;;;;;;8.81;100.00;97907.88;4961972;28;20049;-67
2024/03/05 02:20:05;;;;;;;8.52;3.58;;;;;;;8.88;100.00;97900.31;4980145;28;20046;-68
2024/03/05 02:22:35;;;;;;;7.88;3.20;;;;;;;8.88;100.00;97897.72;4946549;28;20050;-68
2024/03/05 02:25:00;;;;;;;7.57;3.00;;;;;;;8.79;100.00;97909.78;4961878;28;20053;-68
2024/03/05 02:27:28;;;;;;;6.97;3.30;;;;;;;8.75;100.00;97903.28;4962382;28;20046;-68
2024/03/05 02:29:53;;;;;;;7.57;3.40;;;;;;;8.80;100.00;97896.69;4961687;28;20042;-66
2024/03/05 02:32:21;;;;;;;7.30;3.28;;;;;;;8.78;100.00;97901.22;4961793;28;20116;-67
2024/03/05 02:34:54;;;;;;;7.50;3.50;;;;;;;8.52;100.00;97844.13;4963009;28;20445;-67
2024/03/05 02:37:22;;;;;;;6.95;3.25;;;;;;;8.78;100.00;97890.00;4961253;28;20077;-67
2024/03/05 02:39:50;;;;;;;8.00;3.55;;;;;;;8.76;100.00;97887.59;4965153;28;20580;-67
2024/03/05 02:42:16;;;;;;;7.80;3.45;;;;;;;8.77;100.00;97878.84;4977742;28;20157;-67
2024/03/05 02:44:43;;;;;;;7.13;3.20;;;;;;;8.74;100.00;97879.13;4965615;28;20507;-67
2024/03/05 02:47:09;;;;;;;6.32;3.38;;;;;;;8.58;100.00;97895.38;4961979;28;20045;-67
2024/03/05 02:49:37;;;;;;;6.65;3.08;;;;;;;8.45;100.00;97872.44;4966304;28;20038;-66
2024/03/05 02:52:06;;;;;;;8.13;3.33;;;;;;;8.29;100.00;97872.28;4962303;28;20069;-66
2024/03/05 02:54:34;;;;;;;5.88;3.17;;;;;;;8.33;100.00;97873.59;4977491;28;20060;-67
2024/03/05 02:56:59;;;;;;;7.20;3.53;;;;;;;8.26;100.00;97881.13;4962007;28;20054;-67
2024/03/05 02:59:25;;;;;;;7.68;3.20;;;;;;;7.87;100.00;97827.03;4961901;28;20042;-67
2024/03/05 03:01:50;;;;;;;6.28;3.35;;;;;;;7.86;100.00;97828.00;4960417;28;20050;-67
2024/03/05 03:04:18;;;;;;;6.95;3.58;;;;;;;8.01;100.00;97869.75;4980449;28;20705;-66
2024/03/05 03:06:44;;;;;;;9.05;4.25;;;;;;;7.89;100.00;97837.25;4943961;28;20583;-66
2024/03/05 03:09:10;;;;;;;6.80;3.88;;;;;;;8.22;100.00;97872.03;4966021;28;20148;-66
2024/03/05 03:11:38;;;;;;;6.72;4.03;;;;;;;7.98;100.00;97828.59;4955856;28;20188;-68
2024/03/05 03:14:03;;;;;;;12.07;4.15;;;;;;;7.99;100.00;97838.00;4963522;28;20038;-68
2024/03/05 03:16:32;;;;;;;6.78;3.67;;;;;;;8.28;100.00;97878.41;4966689;28;20034;-68
2024/03/05 03:18:58;;;;;;;7.28;4.43;;;;;;;8.25;100.00;97879.53;4967223;28;20121;-68
2024/03/05 03:21:26;;;;;;;8.18;4.38;;;;;;;8.11;100.00;97868.88;4949570;28;20453;-68
2024/03/05 03:23:51;;;;;;;6.75;4.32;;;;;;;8.18;100.00;97870.72;4961679;28;20138;-68
2024/03/05 03:26:19;;;;;;;7.97;4.13;;;;;;;8.04;100.00;97874.63;4965432;28;20146;-68
2024/03/05 03:28:47;;;;;;;7.53;3.72;;;;;;;8.09;100.00;97877.59;4979333;28;20026;-68
2024/03/05 03:31:13;;;;;;;8.13;3.50;;;;;;;8.12;100.00;97876.47;4981266;28;20046;-68
2024/03/05 03:33:39;;;;;;;6.43;4.03;;;;;;;7.91;100.00;97848.28;4964309;28;20117;-66
2024/03/05 03:36:07;;;;;;;9.88;3.92;;;;;;;8.12;100.00;97879.06;4961342;28;20474;-67
2024/03/05 03:38:34;;;;;;;6.82;3.50;;;;;;;8.12;100.00;97878.25;4945389;28;20034;-67
2024/03/05 03:40:59;;;;;;;9.65;3.80;;;;;;;7.92;100.00;97831.75;4956093;28;20765;-67
2024/03/05 03:43:25;;;;;;;6.20;3.45;;;;;;;8.06;100.00;97867.50;4982532;28;20044;-68
2024/03/05 03:45:51;;;;;;;10.85;4.10;;;;;;;7.86;100.00;97846.13;4964579;28;20038;-68
2024/03/05 03:48:16;;;;;;;9.60;4.15;;;;;;;8.07;100.00;97879.50;4964177;28;20057;-67
2024/03/05 03:50:43;;;;;;;6.50;4.22;;;;;;;7.90;100.00;97872.53;4980370;28;20033;-67
2024/03/05 03:53:10;;;;;;;7.30;4.78;;;;;;;8.05;100.00;97883.22;4983225;28;20065;-69
2024/03/05 03:55:36;;;;;;;8.85;4.43;;;;;;;8.05;100.00;97872.88;4991580;28;20037;-67
2024/03/05 03:58:02;;;;;;;10.65;4.40;;;;;;;8.07;100.00;97883.88;4965576;28;20034;-68
2024/03/05 04:00:32;;;;;;;7.90;4.32;;;;;;;8.05;100.00;97881.44;4962845;28;20073;-68
2024/03/05 04:02:58;;;;;;;8.32;4.65;;;;;;;8.04;100.00;97881.56;4972724;28;20045;-68
2024/03/05 04:05:24;;;;;;;6.13;4.00;;;;;;;7.91;100.00;97866.41;4980330;28;20034;-68
2024/03/05 04:07:52;;;;;;;8.13;3.90;;;;;;;7.94;100.00;97873.03;4979779;28;20093;-68
2024/03/05 04:10:22;;;;;;;9.40;4.38;;;;;;;7.97;100.00;97880.53;4999293;28;20045;-68
2024/03/05 04:12:52;;;;;;;6.65;3.97;;;;;;;7.88;100.00;97877.88;4995918;28;20046;-68
2024/03/05 04:15:18;;;;;;;;;;;;;;;7.98;100.00;97880.38;4985951;28;20038;-67
2024/03/05 04:17:45;;;;;;;8.18;3.97;;;;;;;7.59;100.00;97821.06;4979592;28;19919;-66
2024/03/05 04:20:14;;;;;;;8.20;3.70;;;;;;;7.95;100.00;97882.44;4983528;28;20045;-67
2024/03/05 04:22:42;;;;;;;9.40;4.22;;;;;;;7.99;100.00;97866.47;4981504;28;20078;-68
2024/03/05 04:25:13;;;;;;;7.43;3.50;;;;;;;8.00;100.00;97875.06;4979458;28;20145;-69
2024/03/05 04:27:46;;;;;;;7.88;3.75;;;;;;;8.03;100.00;97878.19;4962279;28;20139;-68
2024/03/05 04:30:13;;;;;;;6.30;3.33;;;;;;;8.02;100.00;97878.31;4983976;28;20073;-67
2024/03/05 04:32:46;;;;;;;6.88;3.45;;;;;;;8.05;100.00;97867.69;4982291;28;20188;-67
2024/03/05 04:35:13;;;;;;;7.28;3.97;;;;;;;8.09;100.00;97869.81;4979101;28;20026;-67
2024/03/05 04:37:39;;;;;;;6.70;3.42;;;;;;;8.02;100.00;97863.59;4973655;28;20128;-67
2024/03/05 04:40:10;;;;;;;10.55;3.67;;;;;;;8.15;100.00;97888.31;4963851;28;20042;-67
2024/03/05 04:42:41;;;;;;;9.02;3.45;;;;;;;8.11;100.00;97877.44;4954157;28;20057;-68
2024/03/05 04:45:09;;;;;;;9.13;3.45;;;;;;;8.10;100.00;97875.81;4965802;28;20030;-68
2024/03/05 04:47:42;;;;;;;6.13;3.35;;;;;;;8.14;100.00;97874.56;4963023;28;20034;-67
2024/03/05 04:50:10;;;;;;;6.47;3.55;;;;;;;8.16;100.00;97872.63;4961705;28;20036;-68
2024/03/05 04:52:38;;;;;;;6.95;3.70;;;;;;;8.18;100.00;97878.47;4946107;28;20445;-68
2024/03/05 04:55:07;;;;;;;6.00;3.65;;;;;;;8.15;100.00;97878.78;4960526;28;20408;-68
2024/03/05 04:57:34;;;;;;;9.05;3.67;;;;;;;8.26;100.00;97877.75;4963219;28;20034;-68
2024/03/05 05:00:04;;;;;;;7.63;3.08;;;;;;;8.34;100.00;97882.19;4971683;28;20048;-69
2024/03/05 05:02:29;;;;;;;7.82;3.55;;;;;;;8.38;100.00;97868.78;4956455;28;20046;-67
2024/03/05 05:04:57;;;;;;;9.07;3.17;;;;;;;8.45;100.00;97877.63;4954173;28;20436;-67
2024/03/05 05:07:23;;;;;;;7.75;3.20;;;;;;;8.44;100.00;97872.59;4945275;28;20486;-68
2024/03/05 05:09:49;;;;;;;6.50;3.53;;;;;;;8.31;100.00;97841.03;4946432;28;20707;-68
2024/03/05 05:12:14;;;;;;;8.15;2.95;;;;;;;8.57;100.00;97887.75;4957873;28;20090;-68
2024/03/05 05:14:40;;;;;;;10.20;3.53;;;;;;;8.39;100.00;97890.31;4965092;28;20046;-68
2024/03/05 05:17:08;;;;;;;10.70;4.00;;;;;;;8.26;100.00;97885.50;4962926;28;20069;-68
2024/03/05 05:19:35;;;;;;;7.60;3.30;;;;;;;8.14;100.00;97890.09;4942563;28;20030;-68
2024/03/05 05:22:01;;;;;;;7.53;3.40;;;;;;;7.82;100.00;97841.38;4949113;28;20125;-67
2024/03/05 05:24:28;;;;;;;7.35;3.20;;;;;;;8.14;100.00;97879.75;4942331;28;20037;-67
2024/03/05 05:26:54;;;;;;;6.63;3.10;;;;;;;8.02;100.00;97844.66;4961468;28;20042;-68
2024/03/05 05:29:19;;;;;;;6.68;2.95;;;;;;;8.28;100.00;97868.84;4952051;28;20627;-66
2024/03/05 05:31:45;;;;;;;8.15;3.47;;;;;;;8.33;100.00;97875.38;4959097;28;20042;-67
2024/03/05 05:34:10;;;;;;;8.02;3.33;;;;;;;8.22;100.00;97872.03;4984464;28;20113;-67
2024/03/05 05:36:36;;;;;;;7.35;4.00;;;;;;;8.04;100.00;97847.91;4957335;28;20034;-67
2024/03/05 05:39:06;;;;;;;6.90;3.28;;;;;;;8.17;100.00;97869.06;4963516;28;20109;-68
2024/03/05 05:41:32;;;;;;;7.05;3.28;;;;;;;8.15;100.00;97862.44;4943670;28;20170;-67
2024/03/05 05:43:59;;;;;;;7.57;3.10;;;;;;;8.35;100.00;97876.03;4980110;28;20030;-67
2024/03/05 05:46:27;;;;;;;7.13;3.20;;;;;;;8.08;100.00;97831.94;4956426;28;20049;-68
2024/03/05 05:48:54;;;;;;;8.93;3.00;;;;;;;7.99;100.00;97829.41;4960455;28;20061;-68
2024/03/05 05:51:22;;;;;;;7.25;3.55;;;;;;;8.25;100.00;97869.16;4947101;28;20137;-67
2024/03/05 05:53:50;;;;;;;8.68;3.63;;;;;;;8.20;100.00;97870.56;4957819;28;20126;-68
2024/03/05 05:56:18;;;;;;;6.95;3.30;;;;;;;8.02;100.00;97855.81;4974663;28;20053;-67
2024/03/05 05:58:45;;;;;;;9.88;3.45;;;;;;;8.09;100.00;97867.22;4949976;28;20111;-67
2024/03/05 06:01:13;;;;;;;10.07;3.10;;;;;;;8.12;100.00;97868.69;4957098;28;20180;-67
2024/03/05 06:03:45;;;;;;;7.78;2.90;;;;;;;8.33;100.00;97870.19;4964874;28;20101;-68
2024/03/05 06:06:16;;;;;;;6.63;2.88;;;;;;;8.41;100.00;97870.25;4948479;28;20042;-68
2024/03/05 06:08:42;;;;;;;7.10;3.33;;;;;;;8.45;100.00;97876.78;4945842;28;20038;-66
2024/03/05 06:11:07;;;;;;;5.50;2.97;;;;;;;8.49;100.00;97870.38;4961803;28;20799;-66
2024/03/05 06:13:33;;;;;;;8.80;3.15;;;;;;;8.25;100.00;97861.41;4966096;28;20038;-66
2024/03/05 06:16:01;;;;;;;5.82;2.83;;;;;;;8.28;100.00;97871.44;4964245;28;20206;-67
2024/03/05 06:18:29;;;;;;;7.88;3.00;;;;;;;8.31;100.00;97882.50;4961949;28;20049;-68
2024/03/05 06:20:56;;;;;;;6.78;3.40;;;;;;;8.28;100.00;97878.41;4944226;28;20038;-67
2024/03/05 06:23:22;;;;;;;8.20;3.42;;;;;;;8.29;100.00;97880.03;4976733;28;20042;-67
2024/03/05 06:25:47;;;;;;;8.00;3.42;;;;;;;8.38;100.00;97871.38;4959866;28;20042;-68
2024/03/05 06:28:13;;;;;;;5.75;3.10;;;;;;;8.34;100.00;97883.00;4947594;28;20105;-68
2024/03/05 06:30:46;;;;;;;6.88;2.90;;;;;;;8.39;100.00;97867.00;4951929;28;20073;-67
2024/03/05 06:33:14;;;;;;;8.63;3.20;;;;;;;8.08;100.00;97841.47;4945760;28;20046;-66
2024/03/05 06:35:46;;;;;;;8.15;3.03;;;;;;;8.37;100.00;97867.16;4941499;28;20089;-67
2024/03/05 06:38:13;;;;;;;8.05;2.95;;;;;;;8.38;100.00;97880.94;4953343;28;20085;-68
2024/03/05 06:40:38;;;;;;;5.95;3.00;;;;;;;8.42;100.00;97877.09;4974049;28;20475;-66
2024/03/05 06:43:12;;;;;;;12.15;3.10;;;;;;;8.48;100.00;97873.91;4977379;28;20041;-67
2024/03/05 06:45:42;;;;;;;6.45;3.10;;;;;;;8.41;100.00;97870.25;4965775;28;20629;-67
2024/03/05 06:48:12;;;;;;;6.82;2.95;;;;;;;8.26;100.00;97855.22;4978644;28;20038;-67
2024/03/05 06:50:41;;;;;;;7.03;2.80;;;;;;;8.44;100.00;97894.13;4974514;28;20030;-66
2024/03/05 06:58:41;;;;;;;6.13;2.65;;;;;;;8.70;100.00;97870.03;4975346;28;21578;-66
2024/03/05 07:01:07;;;;;;;6.35;2.70;;;;;;;8.74;100.00;97889.50;4965724;28;20042;-67
2024/03/05 07:03:43;;;;;;;7.00;2.65;;;;;;;8.65;100.00;97887.81;4978199;28;20057;-67
2024/03/05 07:06:15;;;;;;;5.03;2.50;;;;;;;8.76;100.00;97897.13;4973188;28;20044;-68
2024/03/05 07:08:44;;;;;;;5.72;2.72;;;;;;;8.82;100.00;97899.13;4993055;28;20066;-68
2024/03/05 07:11:11;;;;;;;5.50;2.47;;;;;;;8.78;100.00;97883.06;4977854;28;20048;-66
2024/03/05 07:13:37;;;;;;;6.03;2.90;;;;;;;8.72;100.00;97888.03;4979549;28;20046;-68
2024/03/05 07:16:03;;;;;;;7.35;2.70;;;;;;;8.75;100.00;97896.31;4977292;28;20182;-68
2024/03/05 07:18:29;;;;;;;7.00;2.70;;;;;;;8.50;100.00;97858.22;4972304;28;20052;-68
2024/03/05 07:20:54;;;;;;;5.38;2.50;;;;;;;8.76;100.00;97904.91;4976884;28;20042;-68
2024/03/05 07:23:22;;;;;;;5.40;2.72;;;;;;;8.55;100.00;97853.41;4975284;28;20041;-68
2024/03/05 07:25:48;;;;;;;11.27;2.50;;;;;;;8.89;100.00;97904.50;4964724;28;20041;-68
2024/03/05 07:28:19;;;;;;;7.45;3.10;;;;;;;8.98;100.00;97908.78;4961567;28;20041;-68
2024/03/05 07:30:47;;;;;;;10.63;2.80;;;;;;;8.88;100.00;97901.09;4968679;28;20069;-68
2024/03/05 07:33:17;;;;;;;6.70;2.63;;;;;;;8.99;100.00;97902.66;4974141;28;20041;-67
2024/03/05 07:35:43;;;;;;;6.95;2.53;;;;;;;9.03;100.00;97909.16;4976039;28;20061;-68
2024/03/05 07:38:09;;;;;;;5.80;2.90;;;;;;;8.71;100.00;97870.88;4964086;28;20114;-67
2024/03/05 07:40:34;;;;;;;9.15;3.20;;;;;;;8.96;100.00;97915.91;4964816;28;20471;-68
2024/03/05 07:43:02;;;;;;;6.35;2.40;;;;;;;9.05;100.00;97915.00;4977369;28;20050;-68
2024/03/05 07:45:28;;;;;;;7.32;2.80;;;;;;;9.06;100.00;97910.66;4970408;28;20141;-66
2024/03/05 07:47:57;;;;;;;4.88;2.40;;;;;;;9.12;100.00;97913.41;4974931;28;20091;-67
2024/03/05 07:50:22;;;;;;;9.40;3.00;;;;;;;9.07;100.00;97918.25;4965523;28;20065;-67
2024/03/05 07:52:50;;;;;;;7.25;2.53;;;;;;;9.10;100.00;97912.75;4988670;28;20775;-67
2024/03/05 07:55:18;;;;;;;7.65;2.40;;;;;;;9.28;100.00;97909.31;4957268;28;20088;-67
2024/03/05 07:57:49;;;;;;;4.72;2.05;;;;;;;9.38;100.00;97916.03;4980833;28;20030;-67
2024/03/05 08:00:19;;;;;;;4.47;1.98;;;;;;;9.47;100.00;97916.06;4980109;28;20026;-67
2024/03/05 08:02:45;;;;;;;6.68;2.70;;;;;;;9.45;100.00;97885.06;5003361;28;20781;-68
2024/03/05 08:05:18;;;;;;;8.45;2.60;;;;;;;9.60;100.00;97911.25;4987096;28;20042;-68
2024/03/05 08:07:45;;;;;;;6.28;2.35;;;;;;;9.60;100.00;97914.69;4983020;28;20041;-68
2024/03/05 08:10:16;;;;;;;7.80;2.95;;;;;;;9.24;100.00;97911.41;4962340;28;20753;-69
2024/03/05 08:12:47;;;;;;;6.82;2.90;;;;;;;9.10;100.00;97906.78;4979203;28;20168;-67
2024/03/05 08:15:15;;;;;;;8.20;2.88;;;;;;;9.07;100.00;97914.84;4965784;28;20121;-68
2024/03/05 08:17:47;;;;;;;9.13;3.03;;;;;;;8.99;100.00;97913.03;4979356;28;20404;-68
2024/03/05 08:20:17;;;;;;;6.18;2.70;;;;;;;9.02;100.00;97918.72;4962023;28;20088;-68
2024/03/05 08:22:45;;;;;;;8.02;2.70;;;;;;;9.04;100.00;97913.38;4975951;28;20034;-68
2024/03/05 08:25:15;;;;;;;6.28;3.00;;;;;;;8.86;100.00;97874.53;4981191;28;20073;-69
2024/03/05 08:27:41;;;;;;;6.80;2.42;;;;;;;9.25;100.00;97894.84;4970059;28;20044;-67
2024/03/05 08:30:10;;;;;;;6.72;3.00;;;;;;;9.36;100.00;97906.75;4983313;28;20165;-67
2024/03/05 08:32:37;;;;;;;6.03;2.75;;;;;;;9.39;100.00;97896.88;4988062;28;20063;-67
2024/03/05 08:35:03;;;;;;;9.50;2.78;;;;;;;9.67;100.00;97906.25;4981043;28;20041;-69
2024/03/05 08:37:29;;;;;;;6.63;2.47;;;;;;;9.67;100.00;97903.66;4989258;28;20034;-67
2024/03/05 08:39:54;;;;;;;5.88;2.60;;;;;;;9.52;100.00;97880.06;4974978;28;20048;-67
2024/03/05 08:42:22;;;;;;;6.43;2.60;;;;;;;9.57;100.00;97886.44;4973560;28;20064;-68
2024/03/05 08:44:47;;;;;;;8.00;3.00;;;;;;;9.61;100.00;97911.09;4981873;28;20042;-68
2024/03/05 08:47:17;;;;;;;7.90;2.90;;;;;;;9.64;100.00;97920.38;4975655;28;20038;-68
2024/03/05 08:49:44;;;;;;;7.40;2.90;;;;;;;9.66;100.00;97892.47;4983499;28;20046;-68
2024/03/05 08:52:09;;;;;;;5.90;2.88;;;;;;;9.79;100.00;97912.81;4963342;28;20996;-67
2024/03/05 08:54:34;;;;;;;7.85;2.85;;;;;;;9.66;100.00;97918.44;4984845;28;20056;-68
2024/03/05 08:57:01;;;;;;;7.40;2.83;;;;;;;9.56;100.00;97905.56;4954629;28;20046;-69
2024/03/05 08:59:27;;;;;;;9.48;2.83;;;;;;;9.63;100.00;97903.97;4959980;28;20109;-68
2024/03/05 09:01:53;;;;;;;8.85;3.22;;;;;;;9.61;100.00;97913.69;4982555;28;20557;-68
2024/03/05 09:04:30;;;;;;;7.07;2.80;;;;;;;9.63;100.00;97908.34;4978697;28;20050;-68
2024/03/05 09:06:55;;;;;;;6.20;2.88;;;;;;;9.75;100.00;97914.91;4965634;28;20045;-68
2024/03/05 09:09:23;;;;;;;6.90;2.90;;;;;;;9.81;100.00;97909.06;4966209;28;20065;-68
2024/03/05 09:11:48;;;;;;;5.75;2.90;;;;;;;9.71;100.00;97917.94;4976319;28;20132;-68
2024/03/05 09:14:15;;;;;;;8.75;3.03;;;;;;;9.71;100.00;97912.75;4983372;28;20445;-69
2024/03/05 09:16:40;;;;;;;6.40;3.10;;;;;;;9.72;100.00;97920.38;4976975;28;20033;-68
2024/03/05 09:19:10;;;;;;;8.35;2.72;;;;;;;9.64;100.00;97910.00;4987200;28;20044;-67
2024/03/05 09:21:36;;;;;;;;;;;;;;;9.76;100.00;97919.09;4965800;28;20713;-69
2024/03/05 09:24:06;;;;;;;6.38;3.30;;;;;;;9.85;100.00;97919.16;4994252;28;19957;-69
2024/03/05 09:26:39;;;;;;;5.50;3.08;;;;;;;9.79;100.00;97916.19;4992992;28;20033;-67
2024/03/05 09:29:04;;;;;;;8.73;3.88;;;;;;;9.65;100.00;97924.56;4980732;28;20037;-68
2024/03/05 09:31:30;;;;;;;11.70;4.80;;;;;;;9.68;100.00;97913.88;4962537;28;20088;-68
2024/03/05 09:33:59;;;;;;;7.63;3.85;;;;;;;9.54;100.00;97871.16;5000891;28;20029;-67
2024/03/05 09:36:27;;;;;;;9.05;3.95;;;;;;;9.67;100.00;97882.88;4979311;28;20046;-67
2024/03/05 09:38:52;;;;;;;8.40;3.83;;;;;;;9.82;100.00;97930.66;4976008;28;20041;-66
2024/03/05 09:41:18;;;;;;;6.28;2.83;;;;;;;9.94;100.00;97923.41;4981420;28;20058;-67
2024/03/05 09:43:45;;;;;;;6.13;2.90;;;;;;;9.91;100.00;97923.69;4953654;28;20174;-68
2024/03/05 09:46:19;;;;;;;6.85;2.70;;;;;;;9.78;100.00;97891.22;4964193;28;20049;-67
2024/03/05 09:48:44;;;;;;;5.63;3.00;;;;;;;9.92;100.00;97896.78;4979217;28;20038;-67
2024/03/05 09:51:10;;;;;;;6.03;2.90;;;;;;;10.23;100.00;97924.78;4960059;28;20042;-68
2024/03/05 09:53:36;;;;;;;7.05;3.20;;;;;;;10.38;100.00;97937.00;4976409;28;20096;-68
2024/03/05 09:56:04;;;;;;;6.22;3.15;;;;;;;10.39;100.00;97923.06;4983243;28;20420;-67
2024/03/05 09:58:38;;;;;;;7.63;3.15;;;;;;;10.45;100.00;97923.38;4965186;28;20041;-67
2024/03/05 10:01:10;;;;;;;10.60;3.90;;;;;;;10.38;100.00;97918.00;4969131;28;20919;-68
2024/03/05 10:03:39;;;;;;;7.45;3.05;;;;;;;10.32;100.00;97919.47;4975299;28;20056;-64
2024/03/05 10:06:09;;;;;;;8.00;3.33;;;;;;;10.14;100.00;97936.94;4962441;28;20038;-64
2024/03/05 10:08:36;;;;;;;;;;;;;;;10.06;100.00;97931.69;4962543;28;20026;-64
2024/03/05 10:11:07;;;;;;;7.72;3.13;;;;;;;10.03;100.00;97922.44;4977775;28;20496;-65
2024/03/05 10:13:35;;;;;;;9.63;3.28;;;;;;;10.00;100.00;97927.94;4960784;28;20195;-64
2024/03/05 10:16:23;;;;;;;6.10;3.17;;;;;;;10.20;100.00;97931.09;4958080;28;20048;-65
2024/03/05 10:18:49;;;;;;;6.75;3.10;;;;;;;10.14;100.00;97929.13;4976625;28;20046;-63
2024/03/05 10:21:19;;;;;;;8.60;3.50;;;;;;;9.98;100.00;97886.59;4978884;28;20511;-63
2024/03/05 10:24:05;;;;;;;8.10;3.78;;;;;;;10.12;100.00;97916.31;4977059;28;20030;-64
2024/03/05 10:26:34;;;;;;;6.97;3.90;;;;;;;10.25;100.00;97926.22;4962856;28;20767;-64
2024/03/05 10:29:10;;;;;;;9.03;3.70;;;;;;;10.38;100.00;97921.41;4976158;28;20121;-64
2024/03/05 10:31:42;;;;;;;9.75;3.80;;;;;;;10.47;100.00;97927.44;4958992;28;20308;-67
2024/03/05 10:34:07;;;;;;;8.65;3.45;;;;;;;10.54;100.00;97922.41;4964628;28;20418;-64
2024/03/05 10:36:35;;;;;;;6.72;3.28;;;;;;;10.58;100.00;97931.50;4974888;28;20810;-63
2024/03/05 10:39:06;;;;;;;8.63;4.53;;;;;;;10.59;100.00;97933.16;4978275;28;20035;-65
2024/03/05 10:41:32;;;;;;;7.38;2.90;;;;;;;10.58;100.00;97931.50;4964669;28;20037;-65
2024/03/05 10:44:01;;;;;;;9.85;3.30;;;;;;;10.33;100.00;97891.69;4967214;28;20523;-65
2024/03/05 10:46:31;;;;;;;6.53;3.03;;;;;;;10.73;100.00;97929.91;4961409;28;20516;-65
2024/03/05 10:48:58;;;;;;;6.13;2.90;;;;;;;10.58;100.00;97931.50;4978017;28;20625;-63
2024/03/05 10:51:45;;;;;;;6.85;3.03;;;;;;;10.22;100.00;97886.78;4971195;28;20703;-65
2024/03/05 10:54:10;;;;;;;9.98;2.97;;;;;;;10.51;100.00;97925.34;4997102;28;20072;-64
2024/03/05 10:56:38;;;;;;;16.80;3.92;;;;;;;10.56;100.00;97930.88;4955368;28;20653;-65
2024/03/05 11:01:45;;;;;;;9.15;4.53;;;;;;;10.65;100.00;97926.50;4978311;28;20152;-65
2024/03/05 11:04:22;;;;;;;9.63;4.17;;;;;;;10.67;100.00;97919.34;4964102;28;20073;-65
2024/03/05 11:06:54;;;;;;;7.25;3.88;;;;;;;10.76;100.00;97915.75;4948509;28;20046;-64
2024/03/05 11:09:23;;;;;;;7.50;3.50;;;;;;;10.86;100.00;97913.00;4954945;28;20519;-66
2024/03/05 11:11:56;;;;;;;6.72;3.70;;;;;;;10.89;100.00;97910.88;4960494;28;20254;-64
2024/03/05 11:14:24;;;;;;;9.88;4.18;;;;;;;10.94;100.00;97916.41;4949750;28;20042;-66
2024/03/05 11:16:57;;;;;;;9.13;4.55;;;;;;;10.99;100.00;97910.72;4963253;28;20049;-66
2024/03/05 11:19:27;;;;;;;7.68;3.80;;;;;;;11.04;100.00;97908.41;4967099;28;20838;-64
2024/03/05 11:21:52;;;;;;;7.55;3.55;;;;;;;11.07;100.00;97915.09;4983323;28;20084;-65
2024/03/05 11:24:21;;;;;;;7.15;3.35;;;;;;;11.02;100.00;97909.56;4951797;28;20038;-64
2024/03/05 11:26:47;;;;;;;9.90;3.65;;;;;;;11.08;100.00;97914.94;4968501;28;20034;-65
2024/03/05 11:29:16;;;;;;;9.18;3.20;;;;;;;11.07;100.00;97915.09;4962584;28;20037;-65
2024/03/05 11:31:52;;;;;;;7.90;3.88;;;;;;;11.11;100.00;97917.19;4965055;28;20064;-65
2024/03/05 11:34:20;;;;;;;9.95;4.63;;;;;;;10.88;100.00;97859.84;4970931;28;20046;-65
2024/03/05 11:37:06;;;;;;;9.57;3.90;;;;;;;11.03;100.00;97909.41;4970845;28;20038;-65
2024/03/05 11:39:35;;;;;;;8.98;3.80;;;;;;;10.94;100.00;97924.22;4970321;28;20033;-65
2024/03/05 11:42:00;;;;;;;9.50;2.90;;;;;;;10.91;100.00;97921.13;4969054;28;20458;-64